Time;durP1;ratioP1;P1;durP2;ratioP2;P2;SDS_P1;SDS_P2;PMS_P1;PMS_P2;Temp;Humidity;BMP_temperature;BMP_pressure;BME280_temperature;BME280_humidity;BME280_pressure;Samples;Min_cycle;Max_cycle;Signal;HPM_P1;HPM_P2
2021/03/15 00:01:42;;;;;;;25.80;14.33;;;;;;;2.36;69.38;99657.02;1710380;83;21304;-72
2021/03/15 00:04:10;;;;;;;26.37;13.88;;;;;;;2.36;69.29;99655.66;1706925;83;21644;-71
2021/03/15 00:06:40;;;;;;;27.37;14.63;;;;;;;2.34;69.27;99645.59;1694771;84;21188;-70
2021/03/15 00:09:10;;;;;;;26.53;14.10;;;;;;;2.33;69.31;99643.92;1688089;83;21189;-71
2021/03/15 00:11:38;;;;;;;26.57;14.77;;;;;;;2.31;69.20;99645.50;1686807;85;21176;-72
2021/03/15 00:14:07;;;;;;;25.85;13.88;;;;;;;2.30;69.24;99642.47;1699357;83;21275;-70
2021/03/15 00:16:35;;;;;;;23.60;13.05;;;;;;;2.28;69.31;99636.97;1682273;85;21160;-71
2021/03/15 00:19:03;;;;;;;23.62;13.05;;;;;;;2.27;69.17;99635.33;1699493;83;21381;-73
2021/03/15 00:21:31;;;;;;;25.75;13.20;;;;;;;2.26;68.94;99633.15;1691405;83;21409;-73
2021/03/15 00:23:59;;;;;;;30.45;13.78;;;;;;;2.24;68.96;99632.53;1707620;83;21259;-72
2021/03/15 00:26:27;;;;;;;26.65;12.82;;;;;;;2.22;69.08;99632.44;1696857;83;21597;-74
2021/03/15 00:28:56;;;;;;;26.40;13.60;;;;;;;2.21;69.01;99630.77;1696926;84;21200;-72
2021/03/15 00:31:25;;;;;;;25.77;13.00;;;;;;;2.21;69.15;99626.71;1709477;83;21658;-73
2021/03/15 00:33:55;;;;;;;25.33;13.30;;;;;;;2.21;69.10;99622.66;1697208;84;21280;-72
2021/03/15 00:36:23;;;;;;;27.67;13.95;;;;;;;2.21;69.28;99615.91;1696351;83;21206;-73
2021/03/15 00:38:51;;;;;;;25.52;13.65;;;;;;;2.21;69.24;99612.70;1691527;83;21183;-71
2021/03/15 00:41:19;;;;;;;25.08;13.35;;;;;;;2.19;69.47;99612.59;1709557;83;21193;-70
2021/03/15 00:43:48;;;;;;;26.93;12.80;;;;;;;2.18;69.37;99607.71;1708113;83;21224;-72
2021/03/15 00:46:16;;;;;;;23.85;12.28;;;;;;;2.18;69.32;99607.71;1707612;83;21431;-72
2021/03/15 00:48:44;;;;;;;22.98;12.75;;;;;;;2.18;69.14;99600.13;1691137;84;21295;-71
2021/03/15 00:51:12;;;;;;;25.95;12.88;;;;;;;2.17;69.09;99602.02;1698339;83;21702;-73
2021/03/15 00:53:40;;;;;;;25.30;13.35;;;;;;;2.17;69.35;99595.27;1697156;84;21251;-72
2021/03/15 00:56:09;;;;;;;24.33;12.20;;;;;;;2.15;69.39;99601.92;1713409;83;21165;-72
2021/03/15 00:58:37;;;;;;;23.12;11.93;;;;;;;2.12;69.28;99599.13;1699005;83;21113;-71
2021/03/15 01:01:05;;;;;;;26.15;13.00;;;;;;;2.10;69.28;99602.53;1713515;84;21288;-73
2021/03/15 01:03:35;;;;;;;25.50;13.27;;;;;;;2.08;69.50;99592.98;1706331;83;21184;-73
2021/03/15 01:06:04;;;;;;;24.40;12.47;;;;;;;2.07;69.47;99599.44;1704001;84;21132;-71
2021/03/15 01:08:39;;;;;;;26.23;13.30;;;;;;;2.02;69.62;99597.37;1661327;84;21131;-71
2021/03/15 01:11:10;;;;;;;26.63;13.77;;;;;;;2.01;69.71;99592.17;1711750;84;21204;-72
2021/03/15 01:13:40;;;;;;;27.80;12.87;;;;;;;1.98;69.73;99591.23;1704752;83;21547;-72
2021/03/15 01:16:08;;;;;;;24.87;12.40;;;;;;;1.93;69.60;99583.26;1713386;84;21165;-72
2021/03/15 01:18:38;;;;;;;26.07;13.30;;;;;;;1.92;69.96;99584.28;1699433;83;21171;-73
2021/03/15 01:21:06;;;;;;;25.10;12.55;;;;;;;1.88;70.05;99585.75;1709794;83;21212;-72
2021/03/15 01:23:34;;;;;;;28.32;14.60;;;;;;;1.86;70.04;99595.94;1703079;83;21263;-73
2021/03/15 01:26:02;;;;;;;24.72;13.05;;;;;;;1.84;70.11;99587.22;1706988;83;21234;-71
2021/03/15 01:28:30;;;;;;;26.55;11.97;;;;;;;1.82;70.16;99590.63;1702906;83;21169;-73
2021/03/15 01:30:59;;;;;;;;;;;;;;;1.80;70.20;99588.66;1689684;85;21172;-73
2021/03/15 01:33:28;;;;;;;25.87;12.03;;;;;;;1.78;70.34;99589.39;1706045;83;20216;-74
2021/03/15 01:35:57;;;;;;;27.50;13.03;;;;;;;1.76;70.45;99582.55;1699949;83;21160;-73
2021/03/15 01:38:25;;;;;;;24.82;11.73;;;;;;;1.73;70.63;99583.79;1694498;84;21255;-73
2021/03/15 01:40:53;;;;;;;23.40;12.03;;;;;;;1.72;70.84;99577.27;1688857;83;21204;-76
2021/03/15 01:43:21;;;;;;;24.45;12.47;;;;;;;1.72;70.88;99581.31;1693178;83;21136;-75
2021/03/15 01:45:48;;;;;;;21.42;11.80;;;;;;;1.73;70.86;99581.09;1693224;83;21166;-75
2021/03/15 01:48:16;;;;;;;26.45;12.35;;;;;;;1.73;70.89;99576.21;1684263;84;21201;-74
2021/03/15 01:50:47;;;;;;;;;;;;;;;1.72;70.89;99571.33;1706834;82;21152;-72
2021/03/15 01:53:18;;;;;;;26.10;12.33;;;;;;;1.70;70.71;99576.63;1701255;82;20273;-74
2021/03/15 01:55:46;;;;;;;21.87;12.07;;;;;;;1.68;70.81;99564.70;1734166;81;21623;-73
2021/03/15 01:58:14;;;;;;;28.17;13.22;;;;;;;1.67;70.80;99567.08;1719525;82;21250;-73
2021/03/15 02:00:43;;;;;;;27.40;12.03;;;;;;;1.66;70.99;99567.30;1717393;81;21724;-71
2021/03/15 02:03:13;;;;;;;31.93;12.93;;;;;;;1.63;71.05;99565.84;1716485;83;21690;-73
2021/03/15 02:05:41;;;;;;;25.90;12.37;;;;;;;1.61;71.11;99562.53;1708799;81;21240;-72
2021/03/15 02:08:10;;;;;;;27.43;12.47;;;;;;;1.62;71.01;99574.16;1689034;83;21584;-72
2021/03/15 02:10:40;;;;;;;24.97;12.43;;;;;;;1.60;71.02;99574.34;1666223;83;21582;-74
2021/03/15 02:13:20;;;;;;;21.27;12.33;;;;;;;1.59;71.16;99570.01;1700506;82;21255;-71
2021/03/15 02:16:20;;;;;;;28.53;13.27;;;;;;;1.59;71.31;99576.75;1649294;84;21609;-72
2021/03/15 02:19:18;;;;;;;26.27;12.00;;;;;;;1.59;71.24;99576.75;1697250;84;21959;-71
2021/03/15 02:22:15;;;;;;;27.42;12.50;;;;;;;1.61;71.09;99569.27;1665727;83;21183;-72
2021/03/15 02:25:36;;;;;;;25.95;12.35;;;;;;;1.62;71.23;99579.01;1634132;87;21196;-71
2021/03/15 02:28:21;;;;;;;26.20;12.10;;;;;;;1.61;71.31;99573.33;1672843;82;21639;-71
2021/03/15 02:31:16;;;;;;;22.40;11.97;;;;;;;1.59;71.20;99575.41;1754137;81;21147;-71
2021/03/15 02:34:26;;;;;;;25.67;12.17;;;;;;;1.58;71.19;99573.73;1747477;80;21176;-70
2021/03/15 02:36:54;;;;;;;25.70;12.00;;;;;;;1.57;71.18;99569.36;1748727;81;21146;-72
2021/03/15 02:39:26;;;;;;;25.70;12.67;;;;;;;1.56;71.20;99570.42;1727371;81;21188;-70
2021/03/15 02:41:56;;;;;;;24.63;12.63;;;;;;;1.56;71.25;99578.51;1757211;81;21107;-72
2021/03/15 02:44:25;;;;;;;22.93;12.17;;;;;;;1.56;71.35;99567.72;1744687;80;21187;-70
2021/03/15 02:46:52;;;;;;;26.97;12.63;;;;;;;1.52;71.30;99563.77;1687176;85;21210;-69
2021/03/15 02:49:20;;;;;;;27.25;12.03;;;;;;;1.51;71.39;99568.03;1680522;83;21562;-70
2021/03/15 02:51:49;;;;;;;23.85;11.88;;;;;;;1.48;71.78;99571.97;1677721;84;21619;-71
2021/03/15 02:54:16;;;;;;;27.30;12.45;;;;;;;1.45;71.81;99569.67;1685906;83;21236;-70
2021/03/15 02:56:46;;;;;;;29.25;12.93;;;;;;;1.43;71.84;99572.27;1659300;85;21286;-70
2021/03/15 02:59:16;;;;;;;24.87;12.43;;;;;;;1.40;71.97;99573.51;1689044;83;21658;-71
2021/03/15 03:01:45;;;;;;;25.43;12.77;;;;;;;1.39;72.10;99566.48;1684514;85;21275;-70
2021/03/15 03:04:17;;;;;;;26.97;12.40;;;;;;;1.37;72.17;99571.22;1688467;83;21587;-71
2021/03/15 03:06:46;;;;;;;26.33;12.03;;;;;;;1.35;72.44;99567.07;1680928;84;21117;-71
2021/03/15 03:09:16;;;;;;;26.97;12.13;;;;;;;1.32;72.34;99565.61;1692416;83;21144;-70
2021/03/15 03:11:44;;;;;;;21.42;11.83;;;;;;;1.29;72.52;99565.51;1700182;84;21703;-71
2021/03/15 03:14:12;;;;;;;23.38;12.68;;;;;;;1.28;72.69;99565.73;1690465;83;21131;-71
2021/03/15 03:16:41;;;;;;;27.07;13.32;;;;;;;1.26;72.73;99570.50;1695796;84;21412;-71
2021/03/15 03:19:12;;;;;;;27.20;12.43;;;;;;;1.24;72.67;99567.16;1705684;83;21711;-72
2021/03/15 03:21:40;;;;;;;23.03;11.20;;;;;;;1.23;72.66;99573.09;1707503;83;21166;-73
2021/03/15 03:24:09;;;;;;;32.07;13.47;;;;;;;1.21;72.61;99567.59;1665403;85;21724;-72
2021/03/15 03:26:38;;;;;;;23.80;11.43;;;;;;;1.19;72.72;99572.33;1712928;82;21161;-72
2021/03/15 03:29:10;;;;;;;;;;;;;;;1.16;73.02;99568.18;1729755;81;21362;-71
2021/03/15 03:31:44;;;;;;;26.70;12.70;;;;;;;1.14;72.97;99570.77;1699152;82;20527;-72
2021/03/15 03:34:12;;;;;;;22.73;11.57;;;;;;;1.12;73.16;99578.23;1692136;83;21250;-73
2021/03/15 03:36:41;;;;;;;23.15;12.53;;;;;;;1.11;73.15;99584.13;1657152;85;21433;-73
2021/03/15 03:39:10;;;;;;;29.37;13.37;;;;;;;1.08;73.34;99575.64;1686513;83;21631;-72
2021/03/15 03:41:39;;;;;;;24.37;12.53;;;;;;;1.06;73.52;99579.06;1680563;82;21598;-71
2021/03/15 03:44:12;;;;;;;24.60;12.47;;;;;;;1.04;73.65;99583.80;1683818;84;21151;-71
2021/03/15 03:46:41;;;;;;;28.33;12.27;;;;;;;1.01;73.65;99581.55;1687431;82;21160;-71
2021/03/15 03:49:09;;;;;;;27.73;13.60;;;;;;;1.00;73.73;99582.05;1687138;84;21262;-72
2021/03/15 03:51:42;;;;;;;28.38;13.30;;;;;;;0.98;73.87;99580.59;1706291;82;21240;-72
2021/03/15 03:54:16;;;;;;;25.10;12.77;;;;;;;0.97;73.94;99588.35;1702678;83;21275;-72
2021/03/15 03:57:05;;;;;;;24.23;12.57;;;;;;;0.94;73.98;99585.55;1718976;82;21687;-72
2021/03/15 03:59:34;;;;;;;27.20;13.37;;;;;;;0.94;74.09;99592.80;1706433;83;21861;-71
2021/03/15 04:02:03;;;;;;;26.30;13.13;;;;;;;0.92;74.23;99597.05;1709864;82;21230;-73
2021/03/15 04:04:36;;;;;;;25.60;13.30;;;;;;;0.91;74.26;99599.96;1684705;83;21262;-72
2021/03/15 04:07:04;;;;;;;25.90;12.10;;;;;;;0.90;74.30;99604.52;1684737;82;21221;-72
2021/03/15 04:09:35;;;;;;;25.12;12.23;;;;;;;0.91;74.43;99598.07;1711486;82;21147;-71
2021/03/15 04:12:10;;;;;;;28.67;13.97;;;;;;;0.92;74.48;99595.70;1718693;83;21271;-71
2021/03/15 04:14:44;;;;;;;23.53;12.13;;;;;;;0.94;74.63;99595.48;1703961;82;21164;-72
2021/03/15 04:17:22;;;;;;;31.87;13.40;;;;;;;0.96;74.59;99602.88;1718433;83;21159;-73
2021/03/15 04:19:54;;;;;;;26.35;12.80;;;;;;;0.96;74.67;99603.68;1713926;82;21176;-72
2021/03/15 04:22:23;;;;;;;25.50;12.30;;;;;;;0.98;74.71;99607.54;1715841;83;21180;-72
2021/03/15 04:27:17;;;;;;;25.03;13.63;;;;;;;1.04;74.37;99598.63;1827381;77;25258;-72
2021/03/15 04:29:46;;;;;;;27.35;13.53;;;;;;;1.03;74.53;99598.33;1755521;78;21146;-70
2021/03/15 04:32:14;;;;;;;;;;;;;;;1.04;74.67;99609.41;1713303;81;21207;-71
2021/03/15 04:34:42;;;;;;;28.40;12.78;;;;;;;1.06;74.64;99606.82;1748556;80;20637;-72
2021/03/15 04:37:10;;;;;;;28.15;12.90;;;;;;;1.09;74.52;99598.84;1707053;81;21157;-71
2021/03/15 04:39:38;;;;;;;23.77;13.03;;;;;;;1.13;74.42;99601.47;1743747;81;21145;-73
2021/03/15 04:42:06;;;;;;;27.75;12.93;;;;;;;1.14;74.39;99598.55;1753743;81;21133;-74
2021/03/15 04:44:34;;;;;;;24.37;12.90;;;;;;;1.18;74.41;99609.77;1752261;80;21598;-73
2021/03/15 04:47:02;;;;;;;23.55;13.83;;;;;;;1.20;74.22;99608.53;1727930;83;21176;-73
2021/03/15 04:49:32;;;;;;;30.53;14.20;;;;;;;1.22;74.32;99615.05;1693864;83;21341;-73
2021/03/15 04:52:00;;;;;;;29.17;14.27;;;;;;;1.24;74.38;99613.81;1686482;84;21268;-73
2021/03/15 04:54:28;;;;;;;;;;;;;;;1.28;74.49;99614.25;1715641;83;21614;-73
2021/03/15 04:56:56;;;;;;;26.57;12.70;;;;;;;1.33;74.45;99617.16;1715034;83;20520;-72
2021/03/15 04:59:24;;;;;;;33.15;13.68;;;;;;;1.36;74.09;99619.97;1708831;83;21167;-72
2021/03/15 05:01:51;;;;;;;28.92;13.22;;;;;;;1.38;74.13;99606.59;1710560;82;22062;-74
2021/03/15 05:04:22;;;;;;;24.43;13.50;;;;;;;1.40;74.16;99599.13;1715289;83;21144;-72
2021/03/15 05:06:50;;;;;;;27.87;13.70;;;;;;;1.44;74.00;99601.73;1687324;82;21204;-72
2021/03/15 05:09:18;;;;;;;26.70;14.23;;;;;;;1.50;73.66;99606.80;1710138;83;21719;-73
2021/03/15 05:11:47;;;;;;;25.50;13.93;;;;;;;1.54;73.43;99608.91;1691346;83;21745;-73
2021/03/15 05:14:15;;;;;;;32.00;14.13;;;;;;;1.55;73.39;99609.20;1695241;84;21192;-73
2021/03/15 05:16:43;;;;;;;27.85;13.90;;;;;;;1.59;73.23;99615.02;1692655;83;21727;-73
2021/03/15 05:19:12;;;;;;;35.98;14.50;;;;;;;1.62;73.09;99618.12;1693802;83;21189;-74
2021/03/15 05:21:41;;;;;;;23.07;13.18;;;;;;;1.61;73.14;99613.78;1671639;82;21140;-73
2021/03/15 05:24:10;;;;;;;24.73;13.10;;;;;;;1.62;73.06;99612.72;1698438;84;21785;-77
2021/03/15 05:26:40;;;;;;;30.70;13.53;;;;;;;1.64;73.10;99612.53;1696914;82;21153;-73
2021/03/15 05:29:10;;;;;;;26.73;14.00;;;;;;;1.67;73.00;99610.23;1693647;84;21188;-72
2021/03/15 05:31:40;;;;;;;28.60;13.93;;;;;;;1.71;73.16;99612.84;1698236;84;21262;-72
2021/03/15 05:34:10;;;;;;;32.30;16.67;;;;;;;1.76;73.08;99610.36;1696818;82;21166;-72
2021/03/15 05:36:39;;;;;;;27.97;14.70;;;;;;;1.84;73.01;99608.81;1668054;83;21191;-74
2021/03/15 05:39:07;;;;;;;31.83;16.33;;;;;;;1.91;72.82;99612.33;1686138;83;21160;-73
2021/03/15 05:41:46;;;;;;;;;;;;;;;2.00;72.66;99620.22;1691643;83;21163;-74
2021/03/15 05:44:37;;;;;;;26.40;13.00;;;;;;;2.06;72.53;99618.01;1700853;83;20505;-74
2021/03/15 05:47:47;;;;;;;29.33;12.53;;;;;;;2.09;72.12;99621.64;1687843;83;21270;-73
2021/03/15 05:51:05;;;;;;;28.37;12.93;;;;;;;2.12;72.07;99622.07;1690785;83;21238;-74
2021/03/15 05:54:29;;;;;;;30.60;14.77;;;;;;;2.16;72.14;99634.61;1693810;83;21132;-74
2021/03/15 05:57:20;;;;;;;31.07;12.33;;;;;;;2.18;71.85;99625.27;1699380;83;21163;-73
2021/03/15 06:00:14;;;;;;;22.50;12.83;;;;;;;2.21;71.75;99629.41;1691066;83;21559;-75
2021/03/15 06:03:32;;;;;;;26.00;12.47;;;;;;;2.24;71.90;99630.34;1709624;82;21370;-74
2021/03/15 06:06:02;;;;;;;26.07;12.10;;;;;;;2.27;71.54;99625.88;1695440;84;21298;-76
2021/03/15 06:08:30;;;;;;;27.17;12.53;;;;;;;2.30;71.30;99638.97;1697806;84;21153;-73
2021/03/15 06:11:12;;;;;;;24.50;13.13;;;;;;;2.34;71.08;99633.45;1693664;82;21670;-77
2021/03/15 06:13:40;;;;;;;24.73;13.47;;;;;;;2.37;71.03;99623.58;1719332;81;21404;-73
2021/03/15 06:16:09;;;;;;;26.95;13.55;;;;;;;2.42;70.88;99627.83;1707599;81;21123;-74
2021/03/15 06:18:39;;;;;;;23.87;12.60;;;;;;;2.46;70.70;99622.30;1694685;84;21163;-75
2021/03/15 06:21:11;;;;;;;28.23;12.70;;;;;;;2.49;70.71;99624.06;1684257;82;21139;-75
2021/03/15 06:23:39;;;;;;;24.93;12.90;;;;;;;2.49;70.44;99619.18;1710436;84;21169;-75
2021/03/15 06:26:07;;;;;;;27.32;12.80;;;;;;;2.50;70.32;99618.95;1688709;82;21201;-76
2021/03/15 06:28:36;;;;;;;27.62;13.25;;;;;;;2.50;70.31;99611.40;1684578;82;21689;-75
2021/03/15 06:31:03;;;;;;;23.20;12.40;;;;;;;2.54;70.40;99619.37;1694505;82;21202;-75
2021/03/15 06:33:34;;;;;;;27.23;13.40;;;;;;;2.56;70.28;99610.02;1713687;82;21207;-76
2021/03/15 06:36:06;;;;;;;25.35;13.80;;;;;;;2.59;70.29;99608.76;1701207;82;21759;-72
2021/03/15 06:38:37;;;;;;;26.80;13.87;;;;;;;2.64;71.21;99614.87;1684577;84;21147;-73
2021/03/15 06:41:06;;;;;;;28.60;14.53;;;;;;;2.70;70.54;99609.97;1646559;84;21231;-73
2021/03/15 06:43:34;;;;;;;26.68;12.98;;;;;;;2.77;70.61;99617.53;1684789;84;21247;-73
2021/03/15 06:46:02;;;;;;;27.42;14.00;;;;;;;2.84;70.36;99612.92;1695152;82;21924;-75
2021/03/15 06:48:30;;;;;;;28.32;13.62;;;;;;;2.95;69.99;99615.80;1689432;83;21242;-72
2021/03/15 06:50:59;;;;;;;24.77;13.33;;;;;;;3.04;69.92;99612.30;1710017;82;21161;-72
2021/03/15 06:53:41;;;;;;;28.50;13.58;;;;;;;3.14;69.81;99614.86;1711707;82;21161;-71
2021/03/15 06:56:15;;;;;;;33.03;13.93;;;;;;;3.26;69.15;99619.59;1703066;84;21802;-72
2021/03/15 06:58:54;;;;;;;30.55;13.75;;;;;;;3.36;69.47;99605.06;1688942;82;21196;-72
2021/03/15 07:01:25;;;;;;;28.97;14.50;;;;;;;3.41;69.22;99612.01;1700753;82;21176;-72
2021/03/15 07:04:06;;;;;;;26.75;14.20;;;;;;;3.48;69.08;99608.73;1692787;82;21173;-76
2021/03/15 07:06:37;;;;;;;25.07;13.13;;;;;;;3.53;68.42;99606.20;1686655;83;21659;-72
2021/03/15 07:09:11;;;;;;;25.47;13.17;;;;;;;3.57;68.25;99603.34;1686773;82;21156;-76
2021/03/15 07:11:39;;;;;;;27.93;12.82;;;;;;;3.58;68.11;99614.48;1696832;84;21172;-77
2021/03/15 07:14:06;;;;;;;26.30;12.93;;;;;;;3.59;68.31;99617.51;1668390;83;21593;-77
2021/03/15 07:16:35;;;;;;;25.12;13.05;;;;;;;3.61;68.19;99612.18;1684984;85;21175;-77
2021/03/15 07:19:07;;;;;;;26.68;12.03;;;;;;;3.63;67.76;99616.84;1682557;82;21938;-72
2021/03/15 07:21:40;;;;;;;27.42;12.33;;;;;;;3.62;67.71;99619.23;1680918;84;21216;-71
2021/03/15 07:24:11;;;;;;;26.07;13.10;;;;;;;3.62;67.85;99622.45;1697544;82;21287;-76
2021/03/15 07:26:46;;;;;;;25.25;12.50;;;;;;;3.64;67.86;99615.78;1694087;83;21153;-76
2021/03/15 07:29:17;;;;;;;27.90;14.00;;;;;;;3.68;68.01;99616.18;1699938;82;21136;-76
2021/03/15 07:31:49;;;;;;;26.62;12.65;;;;;;;3.76;67.62;99614.56;1689932;83;21215;-72
2021/03/15 07:34:19;;;;;;;25.00;13.38;;;;;;;3.84;67.99;99604.82;1705459;82;21341;-81
2021/03/15 07:37:01;;;;;;;26.93;13.48;;;;;;;3.91;67.69;99606.94;1684868;85;21325;-79
2021/03/15 07:39:31;;;;;;;24.27;13.10;;;;;;;3.98;67.32;99608.22;1687210;82;21285;-72
2021/03/15 07:42:01;;;;;;;30.10;14.35;;;;;;;4.05;67.54;99614.44;1683212;82;21208;-74
2021/03/15 07:44:33;;;;;;;28.30;13.93;;;;;;;4.13;67.16;99612.77;1700848;82;21736;-72
2021/03/15 07:47:04;;;;;;;26.93;12.95;;;;;;;4.20;67.37;99610.30;1708308;82;21164;-76
2021/03/15 07:49:37;;;;;;;27.98;12.63;;;;;;;4.26;67.40;99613.48;1702303;82;21295;-72
2021/03/15 07:52:10;;;;;;;30.35;13.08;;;;;;;4.33;66.97;99614.24;1722016;82;21157;-76
2021/03/15 07:54:40;;;;;;;24.23;12.95;;;;;;;4.40;67.24;99609.58;1694459;82;21175;-71
2021/03/15 07:57:21;;;;;;;27.58;12.18;;;;;;;4.43;67.69;99614.55;1730879;82;21148;-73
2021/03/15 07:59:55;;;;;;;31.48;12.37;;;;;;;4.46;67.16;99611.41;1699967;82;21176;-71
2021/03/15 08:02:28;;;;;;;26.93;13.00;;;;;;;4.52;66.80;99608.33;1683925;82;21711;-73
2021/03/15 08:04:58;;;;;;;51.18;29.67;;;;;;;4.59;67.06;99610.43;1721955;82;21163;-73
2021/03/15 08:07:28;;;;;;;31.65;15.23;;;;;;;4.67;66.85;99608.78;1697215;82;21262;-71
2021/03/15 08:09:59;;;;;;;26.23;12.68;;;;;;;4.77;66.78;99603.66;1710998;82;21200;-78
2021/03/15 08:12:31;;;;;;;22.75;12.55;;;;;;;4.87;66.39;99605.83;1676402;82;21219;-84
2021/03/15 08:15:08;;;;;;;29.35;12.25;;;;;;;4.95;66.63;99596.86;1692467;84;21154;-80
2021/03/15 08:17:45;;;;;;;21.10;12.25;;;;;;;5.03;66.63;99599.23;1688028;82;21612;-72
2021/03/15 08:20:17;;;;;;;24.55;12.45;;;;;;;5.12;66.25;99598.41;1698686;84;21141;-73
2021/03/15 08:22:48;;;;;;;24.90;11.68;;;;;;;5.18;65.39;99599.38;1688608;82;21148;-80
2021/03/15 08:25:16;;;;;;;26.00;12.68;;;;;;;5.21;66.56;99603.83;1687499;84;21203;-78
2021/03/15 08:27:47;;;;;;;25.12;12.73;;;;;;;5.23;65.74;99605.78;1697045;82;21279;-80
2021/03/15 08:30:28;;;;;;;23.87;12.53;;;;;;;5.28;65.74;99604.55;1687960;84;21248;-80
2021/03/15 08:32:56;;;;;;;27.52;11.85;;;;;;;5.32;65.85;99595.41;1681291;83;21548;-74
2021/03/15 08:35:24;;;;;;;23.42;11.88;;;;;;;5.35;65.96;99594.43;1680258;84;21188;-74
2021/03/15 08:38:03;;;;;;;27.13;13.60;;;;;;;5.39;66.01;99596.16;1698326;82;21195;-74
2021/03/15 08:40:44;;;;;;;;;;;;;;;5.42;65.86;99596.52;1679874;84;21195;-79
2021/03/15 08:43:23;;;;;;;27.73;13.58;;;;;;;5.49;65.21;99593.16;1702890;82;20190;-76
2021/03/15 08:46:15;;;;;;;27.62;12.75;;;;;;;5.58;65.53;99596.39;1714384;82;21214;-75
2021/03/15 08:48:58;;;;;;;27.10;12.43;;;;;;;5.70;64.57;99599.42;1697240;82;21280;-76
2021/03/15 08:51:38;;;;;;;31.42;12.20;;;;;;;5.77;64.16;99597.42;1699254;84;21373;-74
2021/03/15 08:54:07;;;;;;;23.00;12.15;;;;;;;5.86;64.17;99599.31;1697025;82;21196;-76
2021/03/15 08:56:44;;;;;;;20.08;11.65;;;;;;;5.95;64.35;99591.11;1705129;82;21204;-83
2021/03/15 08:59:13;;;;;;;23.02;12.55;;;;;;;6.00;63.74;99584.44;1707938;82;21264;-82
2021/03/15 09:01:58;;;;;;;25.45;11.60;;;;;;;6.09;63.34;99583.05;1692205;82;21334;-74
2021/03/15 09:04:40;;;;;;;23.38;11.93;;;;;;;6.19;63.80;99579.20;1717455;81;21600;-81
2021/03/15 09:07:27;;;;;;;22.87;12.25;;;;;;;6.27;62.95;99583.45;1688699;83;21445;-80
2021/03/15 09:09:56;;;;;;;27.60;13.08;;;;;;;6.37;63.50;99571.45;1686127;83;21161;-81
2021/03/15 09:12:24;;;;;;;26.75;13.15;;;;;;;6.45;62.62;99574.34;1714918;83;21852;-74
2021/03/15 09:14:57;;;;;;;24.40;13.32;;;;;;;6.55;63.03;99583.55;1681264;83;21190;-78
2021/03/15 09:17:29;;;;;;;30.48;13.85;;;;;;;6.72;63.07;99583.09;1694077;84;21229;-78
2021/03/15 09:20:01;;;;;;;28.00;13.88;;;;;;;6.88;62.10;99584.25;1717811;81;21707;-77
2021/03/15 09:22:30;;;;;;;22.73;12.73;;;;;;;7.01;62.17;99582.58;1657656;83;21152;-77
2021/03/15 09:25:07;;;;;;;22.22;12.65;;;;;;;7.11;61.59;99577.91;1696944;83;21149;-72
2021/03/15 09:27:44;;;;;;;25.92;12.13;;;;;;;7.18;61.31;99585.38;1720777;81;21694;-77
2021/03/15 09:30:30;;;;;;;21.87;11.33;;;;;;;7.25;60.79;99577.89;1685370;83;21325;-74
2021/03/15 09:32:58;;;;;;;22.40;11.53;;;;;;;7.30;60.00;99583.43;1680018;83;21125;-74
2021/03/15 09:35:35;;;;;;;27.07;11.85;;;;;;;7.35;59.78;99587.61;1699855;83;21268;-73
2021/03/15 09:38:13;;;;;;;20.20;11.33;;;;;;;7.39;59.35;99580.59;1737055;81;21185;-77
2021/03/15 09:40:50;;;;;;;27.22;13.00;;;;;;;7.44;59.71;99583.41;1697587;83;21963;-77
2021/03/15 09:43:23;;;;;;;24.12;10.93;;;;;;;7.48;60.01;99575.89;1709297;84;21156;-78
2021/03/15 09:45:58;;;;;;;22.17;11.30;;;;;;;7.52;59.09;99581.66;1693367;83;21123;-74
2021/03/15 09:48:29;;;;;;;27.87;11.68;;;;;;;7.58;58.79;99576.60;1687937;84;21200;-74
2021/03/15 09:51:03;;;;;;;24.77;11.93;;;;;;;7.64;58.38;99581.87;1694080;83;21126;-75
2021/03/15 09:53:33;;;;;;;19.65;11.28;;;;;;;7.69;58.54;99576.52;1723368;81;21160;-80
2021/03/15 09:56:10;;;;;;;19.15;10.95;;;;;;;7.72;58.65;99579.28;1711619;83;21639;-79
2021/03/15 09:58:42;;;;;;;25.92;11.70;;;;;;;7.76;57.89;99577.74;1703670;83;21181;-74
2021/03/15 10:01:17;;;;;;;25.30;11.48;;;;;;;7.80;57.90;99574.80;1691104;83;21137;-79
2021/03/15 10:03:55;;;;;;;20.85;10.60;;;;;;;7.86;57.73;99567.55;1725580;81;21124;-74
2021/03/15 10:06:26;;;;;;;24.43;11.88;;;;;;;7.86;57.19;99568.38;1712690;81;21732;-79
2021/03/15 10:08:57;;;;;;;23.12;11.50;;;;;;;7.90;57.63;99565.43;1728057;81;21270;-81
2021/03/15 10:11:43;;;;;;;31.40;15.15;;;;;;;7.94;57.40;99566.61;1714568;82;21167;-80
2021/03/15 10:14:31;;;;;;;25.45;11.88;;;;;;;8.03;57.36;99565.10;1713486;83;21610;-87
2021/03/15 10:17:21;;;;;;;25.68;11.83;;;;;;;8.14;56.45;99561.47;1675835;83;21252;-77
2021/03/15 10:20:01;;;;;;;24.27;10.08;;;;;;;8.25;56.38;99555.08;1678246;84;21297;-80
2021/03/15 10:22:31;;;;;;;25.57;10.35;;;;;;;8.40;56.04;99557.78;1685166;83;21554;-76
2021/03/15 10:25:02;;;;;;;21.07;11.08;;;;;;;8.40;56.04;99557.78;1703240;84;21279;-73
2021/03/15 10:27:33;;;;;;;32.98;17.05;;;;;;;8.57;55.06;99559.39;1704457;84;21208;-75
2021/03/15 10:30:08;;;;;;;26.27;11.28;;;;;;;8.57;55.06;99559.39;1715256;82;21224;-78
2021/03/15 10:32:41;;;;;;;22.42;10.63;;;;;;;8.63;54.32;99551.55;1700114;83;21646;-79
2021/03/15 10:35:11;;;;;;;21.65;10.78;;;;;;;8.81;54.75;99553.13;1703098;82;21345;-73
2021/03/15 10:37:41;;;;;;;20.10;9.45;;;;;;;8.81;54.75;99528.58;1703023;84;21157;-73
2021/03/15 10:40:31;;;;;;;19.50;9.88;;;;;;;8.93;53.77;99542.91;1684556;83;21155;-80
2021/03/15 10:43:01;;;;;;;28.55;12.25;;;;;;;8.93;53.77;99542.91;1718634;82;21172;-79
2021/03/15 10:45:30;;;;;;;;;;;;;;;8.98;53.96;99546.25;1699745;82;21163;-72
2021/03/15 10:48:02;;;;;;;32.45;15.10;;;;;;;9.00;53.79;99540.83;1699445;83;20197;-72
2021/03/15 10:50:47;;;;;;;21.68;10.82;;;;;;;9.06;53.36;99542.52;1687498;83;21265;-73
2021/03/15 10:53:22;;;;;;;19.70;10.82;;;;;;;9.09;53.96;99544.73;1691646;83;21159;-73
2021/03/15 10:55:51;;;;;;;27.00;10.90;;;;;;;9.11;53.46;99537.11;1693430;82;21399;-73
2021/03/15 10:58:23;;;;;;;27.93;12.47;;;;;;;9.16;53.58;99537.16;1703946;82;21266;-79
2021/03/15 11:01:01;;;;;;;32.50;13.38;;;;;;;9.22;53.38;99534.78;1689849;83;21201;-84
2021/03/15 11:03:32;;;;;;;26.33;12.23;;;;;;;9.26;53.11;99531.81;1712873;83;21982;-74
2021/03/15 11:06:21;;;;;;;23.70;12.10;;;;;;;9.25;53.17;99532.91;1695384;83;21158;-73
2021/03/15 11:08:55;;;;;;;26.48;12.93;;;;;;;9.23;52.65;99536.45;1685566;85;21292;-84
2021/03/15 11:11:29;;;;;;;26.95;11.65;;;;;;;9.22;52.97;99528.49;1697574;82;21525;-85
2021/03/15 11:14:02;;;;;;;22.95;10.38;;;;;;;9.24;52.79;99525.79;1727835;82;21621;-85
2021/03/15 11:16:33;;;;;;;20.77;10.65;;;;;;;9.27;52.51;99523.92;1688757;84;21628;-83
2021/03/15 11:19:12;;;;;;;24.37;10.70;;;;;;;9.30;51.63;99519.84;1673190;83;21240;-74
2021/03/15 11:21:45;;;;;;;21.73;10.58;;;;;;;9.29;52.40;99517.65;1686388;83;21155;-72
2021/03/15 11:24:15;;;;;;;20.55;10.23;;;;;;;9.29;52.49;99516.28;1690158;83;21651;-74
2021/03/15 11:26:48;;;;;;;28.05;11.15;;;;;;;9.27;52.20;99515.72;1696324;82;21613;-73
2021/03/15 11:29:21;;;;;;;23.02;10.38;;;;;;;9.25;52.44;99515.16;1696992;82;21159;-74
2021/03/15 11:31:52;;;;;;;20.10;9.85;;;;;;;9.24;52.09;99516.23;1693619;82;21234;-74
2021/03/15 11:34:25;;;;;;;24.50;11.85;;;;;;;9.22;52.13;99518.94;1709214;82;21199;-79
2021/03/15 11:36:55;;;;;;;27.87;12.20;;;;;;;9.19;51.79;99516.72;1696251;82;21180;-72
2021/03/15 11:39:25;;;;;;;24.43;10.65;;;;;;;9.17;52.06;99521.08;1679332;84;21631;-73
2021/03/15 11:42:00;;;;;;;24.52;11.55;;;;;;;9.17;52.55;99510.69;1684695;83;21175;-79
2021/03/15 11:44:30;;;;;;;29.87;11.50;;;;;;;9.18;52.61;99510.45;1706897;83;21651;-74
2021/03/15 11:46:58;;;;;;;22.50;11.08;;;;;;;9.21;52.29;99509.91;1691856;83;21219;-73
2021/03/15 11:49:28;;;;;;;24.57;11.43;;;;;;;9.22;52.00;99510.75;1682790;83;21155;-73
2021/03/15 11:52:07;;;;;;;24.57;11.73;;;;;;;9.22;53.00;99507.48;1732178;82;21133;-80
2021/03/15 11:54:43;;;;;;;26.35;12.90;;;;;;;9.19;52.62;99501.16;1716153;82;21357;-78
2021/03/15 11:57:11;;;;;;;29.70;13.05;;;;;;;9.16;52.59;99513.16;1714614;83;21176;-73